sensor_id;sensor_type;location;lat;lon;timestamp;P1;durP1;ratioP1;P2;durP2;ratioP2
39554;SDS011;25231;48.746;9.234;2022-10-19T00:01:48;33.23;;;29.73;;
39554;SDS011;25231;48.746;9.234;2022-10-19T00:04:14;32.07;;;28.67;;
39554;SDS011;25231;48.746;9.234;2022-10-19T00:06:39;34.77;;;29.70;;
39554;SDS011;25231;48.746;9.234;2022-10-19T00:09:09;34.80;;;31.23;;
39554;SDS011;25231;48.746;9.234;2022-10-19T00:11:38;34.57;;;31.00;;
39554;SDS011;25231;48.746;9.234;2022-10-19T00:14:05;37.60;;;32.63;;
39554;SDS011;25231;48.746;9.234;2022-10-19T00:16:32;38.10;;;31.77;;
39554;SDS011;25231;48.746;9.234;2022-10-19T00:19:00;39.83;;;33.13;;
39554;SDS011;25231;48.746;9.234;2022-10-19T00:21:28;36.30;;;29.60;;
39554;SDS011;25231;48.746;9.234;2022-10-19T00:23:53;40.37;;;36.00;;
39554;SDS011;25231;48.746;9.234;2022-10-19T00:26:18;39.70;;;35.57;;
39554;SDS011;25231;48.746;9.234;2022-10-19T00:28:44;40.67;;;36.33;;
39554;SDS011;25231;48.746;9.234;2022-10-19T00:31:11;41.37;;;36.77;;
39554;SDS011;25231;48.746;9.234;2022-10-19T00:33:40;39.57;;;32.83;;
39554;SDS011;25231;48.746;9.234;2022-10-19T00:36:13;38.47;;;32.73;;
39554;SDS011;25231;48.746;9.234;2022-10-19T00:38:43;43.47;;;33.30;;
39554;SDS011;25231;48.746;9.234;2022-10-19T00:41:09;48.97;;;32.20;;
39554;SDS011;25231;48.746;9.234;2022-10-19T00:43:50;49.37;;;34.20;;
39554;SDS011;25231;48.746;9.234;2022-10-19T00:46:18;47.53;;;33.00;;
39554;SDS011;25231;48.746;9.234;2022-10-19T00:48:44;52.73;;;28.13;;
39554;SDS011;25231;48.746;9.234;2022-10-19T00:51:09;52.70;;;30.27;;
39554;SDS011;25231;48.746;9.234;2022-10-19T00:53:35;54.67;;;28.77;;
39554;SDS011;25231;48.746;9.234;2022-10-19T00:56:02;59.07;;;31.23;;
39554;SDS011;25231;48.746;9.234;2022-10-19T00:58:31;62.63;;;33.20;;
39554;SDS011;25231;48.746;9.234;2022-10-19T01:00:58;59.37;;;33.97;;
39554;SDS011;25231;48.746;9.234;2022-10-19T01:03:27;64.77;;;31.07;;
39554;SDS011;25231;48.746;9.234;2022-10-19T01:05:52;59.53;;;31.20;;
39554;SDS011;25231;48.746;9.234;2022-10-19T01:08:19;216.17;;;36.20;;
39554;SDS011;25231;48.746;9.234;2022-10-19T01:10:48;339.30;;;41.30;;
39554;SDS011;25231;48.746;9.234;2022-10-19T01:13:27;276.30;;;40.40;;
39554;SDS011;25231;48.746;9.234;2022-10-19T01:16:18;214.63;;;38.03;;
39554;SDS011;25231;48.746;9.234;2022-10-19T01:24:41;215.50;;;31.37;;
39554;SDS011;25231;48.746;9.234;2022-10-19T01:27:35;311.83;;;35.27;;
39554;SDS011;25231;48.746;9.234;2022-10-19T01:42:11;61.30;;;32.10;;
39554;SDS011;25231;48.746;9.234;2022-10-19T01:44:53;264.87;;;34.43;;
39554;SDS011;25231;48.746;9.234;2022-10-19T01:47:41;102.83;;;34.47;;
39554;SDS011;25231;48.746;9.234;2022-10-19T01:50:16;150.00;;;33.53;;
39554;SDS011;25231;48.746;9.234;2022-10-19T01:52:50;157.80;;;33.90;;
39554;SDS011;25231;48.746;9.234;2022-10-19T01:55:16;313.80;;;40.70;;
39554;SDS011;25231;48.746;9.234;2022-10-19T01:57:45;101.07;;;38.10;;
39554;SDS011;25231;48.746;9.234;2022-10-19T02:00:15;293.67;;;43.73;;
39554;SDS011;25231;48.746;9.234;2022-10-19T02:02:42;247.50;;;41.87;;
39554;SDS011;25231;48.746;9.234;2022-10-19T02:05:10;115.77;;;36.00;;
39554;SDS011;25231;48.746;9.234;2022-10-19T02:07:37;270.37;;;37.37;;
39554;SDS011;25231;48.746;9.234;2022-10-19T02:10:06;231.30;;;42.10;;
39554;SDS011;25231;48.746;9.234;2022-10-19T02:12:32;91.73;;;33.80;;
39554;SDS011;25231;48.746;9.234;2022-10-19T02:14:59;140.20;;;35.40;;
39554;SDS011;25231;48.746;9.234;2022-10-19T02:17:35;91.97;;;33.43;;
39554;SDS011;25231;48.746;9.234;2022-10-19T02:20:05;96.00;;;33.23;;
39554;SDS011;25231;48.746;9.234;2022-10-19T02:22:31;170.07;;;29.73;;
39554;SDS011;25231;48.746;9.234;2022-10-19T02:24:57;97.47;;;31.53;;
39554;SDS011;25231;48.746;9.234;2022-10-19T02:27:22;146.63;;;31.07;;
39554;SDS011;25231;48.746;9.234;2022-10-19T02:29:48;183.93;;;34.30;;
39554;SDS011;25231;48.746;9.234;2022-10-19T02:32:13;152.83;;;32.90;;
39554;SDS011;25231;48.746;9.234;2022-10-19T02:34:39;178.00;;;36.77;;
39554;SDS011;25231;48.746;9.234;2022-10-19T02:37:05;148.53;;;34.63;;
39554;SDS011;25231;48.746;9.234;2022-10-19T02:39:31;95.93;;;33.10;;
39554;SDS011;25231;48.746;9.234;2022-10-19T02:42:02;110.80;;;32.37;;
39554;SDS011;25231;48.746;9.234;2022-10-19T02:44:36;99.10;;;34.37;;
39554;SDS011;25231;48.746;9.234;2022-10-19T02:47:11;106.67;;;38.97;;
39554;SDS011;25231;48.746;9.234;2022-10-19T02:49:41;71.30;;;35.17;;
39554;SDS011;25231;48.746;9.234;2022-10-19T02:52:08;79.23;;;41.10;;
39554;SDS011;25231;48.746;9.234;2022-10-19T02:54:35;96.57;;;34.97;;
39554;SDS011;25231;48.746;9.234;2022-10-19T02:57:03;80.20;;;38.87;;
39554;SDS011;25231;48.746;9.234;2022-10-19T02:59:32;112.10;;;35.80;;
39554;SDS011;25231;48.746;9.234;2022-10-19T03:01:57;85.10;;;38.10;;
39554;SDS011;25231;48.746;9.234;2022-10-19T03:04:22;115.37;;;34.27;;
39554;SDS011;25231;48.746;9.234;2022-10-19T03:06:48;81.30;;;30.50;;
39554;SDS011;25231;48.746;9.234;2022-10-19T03:09:13;65.03;;;34.57;;
39554;SDS011;25231;48.746;9.234;2022-10-19T03:11:39;73.70;;;34.50;;
39554;SDS011;25231;48.746;9.234;2022-10-19T03:14:04;77.33;;;33.70;;
39554;SDS011;25231;48.746;9.234;2022-10-19T03:16:30;93.30;;;32.50;;
39554;SDS011;25231;48.746;9.234;2022-10-19T03:18:55;62.90;;;33.73;;
39554;SDS011;25231;48.746;9.234;2022-10-19T03:21:20;66.67;;;34.43;;
39554;SDS011;25231;48.746;9.234;2022-10-19T03:23:46;63.87;;;34.07;;
39554;SDS011;25231;48.746;9.234;2022-10-19T03:26:12;58.63;;;34.43;;
39554;SDS011;25231;48.746;9.234;2022-10-19T03:28:39;57.57;;;35.00;;
39554;SDS011;25231;48.746;9.234;2022-10-19T03:31:05;60.80;;;40.33;;
39554;SDS011;25231;48.746;9.234;2022-10-19T03:33:30;50.40;;;36.13;;
39554;SDS011;25231;48.746;9.234;2022-10-19T03:36:12;45.83;;;36.03;;
39554;SDS011;25231;48.746;9.234;2022-10-19T03:38:43;43.67;;;37.33;;
39554;SDS011;25231;48.746;9.234;2022-10-19T03:41:09;42.53;;;37.90;;
39554;SDS011;25231;48.746;9.234;2022-10-19T03:43:35;40.13;;;32.93;;
39554;SDS011;25231;48.746;9.234;2022-10-19T03:46:00;38.90;;;31.97;;
39554;SDS011;25231;48.746;9.234;2022-10-19T03:48:26;35.83;;;31.40;;
39554;SDS011;25231;48.746;9.234;2022-10-19T03:51:02;36.60;;;32.67;;
39554;SDS011;25231;48.746;9.234;2022-10-19T03:53:30;33.50;;;29.90;;
39554;SDS011;25231;48.746;9.234;2022-10-19T03:56:03;30.67;;;26.23;;
39554;SDS011;25231;48.746;9.234;2022-10-19T03:58:30;31.33;;;26.17;;
39554;SDS011;25231;48.746;9.234;2022-10-19T04:00:57;27.30;;;23.97;;
39554;SDS011;25231;48.746;9.234;2022-10-19T04:03:23;27.37;;;24.40;;
39554;SDS011;25231;48.746;9.234;2022-10-19T04:05:48;26.37;;;23.13;;
39554;SDS011;25231;48.746;9.234;2022-10-19T04:08:14;29.00;;;23.83;;
39554;SDS011;25231;48.746;9.234;2022-10-19T04:10:39;26.67;;;23.83;;
39554;SDS011;25231;48.746;9.234;2022-10-19T04:13:04;28.27;;;24.63;;
39554;SDS011;25231;48.746;9.234;2022-10-19T04:15:30;28.27;;;25.23;;
39554;SDS011;25231;48.746;9.234;2022-10-19T04:17:55;31.43;;;26.37;;
39554;SDS011;25231;48.746;9.234;2022-10-19T04:20:21;34.97;;;27.53;;
39554;SDS011;25231;48.746;9.234;2022-10-19T04:22:46;35.30;;;28.33;;
39554;SDS011;25231;48.746;9.234;2022-10-19T04:25:12;34.77;;;28.33;;
39554;SDS011;25231;48.746;9.234;2022-10-19T04:27:37;35.40;;;28.93;;
39554;SDS011;25231;48.746;9.234;2022-10-19T04:30:02;38.63;;;31.57;;
39554;SDS011;25231;48.746;9.234;2022-10-19T04:32:28;33.93;;;28.40;;
39554;SDS011;25231;48.746;9.234;2022-10-19T04:34:54;36.70;;;29.90;;
39554;SDS011;25231;48.746;9.234;2022-10-19T04:37:19;34.70;;;28.43;;
39554;SDS011;25231;48.746;9.234;2022-10-19T04:39:44;40.73;;;29.90;;
39554;SDS011;25231;48.746;9.234;2022-10-19T04:42:10;32.73;;;27.90;;
39554;SDS011;25231;48.746;9.234;2022-10-19T04:44:35;34.63;;;26.30;;
39554;SDS011;25231;48.746;9.234;2022-10-19T04:47:00;36.30;;;27.93;;
39554;SDS011;25231;48.746;9.234;2022-10-19T04:49:26;35.60;;;28.90;;
39554;SDS011;25231;48.746;9.234;2022-10-19T04:51:51;31.63;;;25.90;;
39554;SDS011;25231;48.746;9.234;2022-10-19T04:54:17;35.40;;;27.80;;
39554;SDS011;25231;48.746;9.234;2022-10-19T04:56:42;37.17;;;25.83;;
39554;SDS011;25231;48.746;9.234;2022-10-19T04:59:08;33.53;;;27.63;;
39554;SDS011;25231;48.746;9.234;2022-10-19T05:01:34;46.33;;;27.20;;
39554;SDS011;25231;48.746;9.234;2022-10-19T05:04:00;64.47;;;28.87;;
39554;SDS011;25231;48.746;9.234;2022-10-19T05:06:26;47.67;;;30.03;;
39554;SDS011;25231;48.746;9.234;2022-10-19T05:08:53;39.10;;;26.30;;
39554;SDS011;25231;48.746;9.234;2022-10-19T05:11:18;37.43;;;26.90;;
39554;SDS011;25231;48.746;9.234;2022-10-19T05:13:45;36.77;;;27.73;;
39554;SDS011;25231;48.746;9.234;2022-10-19T05:16:11;37.83;;;27.77;;
39554;SDS011;25231;48.746;9.234;2022-10-19T05:18:39;89.20;;;26.80;;
39554;SDS011;25231;48.746;9.234;2022-10-19T05:21:09;48.10;;;26.70;;
39554;SDS011;25231;48.746;9.234;2022-10-19T05:23:36;55.07;;;29.13;;
39554;SDS011;25231;48.746;9.234;2022-10-19T05:26:05;60.20;;;27.37;;
39554;SDS011;25231;48.746;9.234;2022-10-19T05:28:33;70.90;;;26.83;;
39554;SDS011;25231;48.746;9.234;2022-10-19T05:31:10;111.70;;;27.23;;
39554;SDS011;25231;48.746;9.234;2022-10-19T05:33:38;66.00;;;24.97;;
39554;SDS011;25231;48.746;9.234;2022-10-19T05:38:41;71.97;;;25.77;;
39554;SDS011;25231;48.746;9.234;2022-10-19T05:41:07;55.37;;;25.43;;
39554;SDS011;25231;48.746;9.234;2022-10-19T05:43:33;84.60;;;27.70;;
39554;SDS011;25231;48.746;9.234;2022-10-19T05:46:03;34.43;;;28.23;;
39554;SDS011;25231;48.746;9.234;2022-10-19T05:48:29;32.00;;;28.03;;
39554;SDS011;25231;48.746;9.234;2022-10-19T05:50:57;32.00;;;28.33;;
39554;SDS011;25231;48.746;9.234;2022-10-19T05:53:24;36.80;;;26.83;;
39554;SDS011;25231;48.746;9.234;2022-10-19T05:55:49;40.27;;;28.03;;
39554;SDS011;25231;48.746;9.234;2022-10-19T05:58:14;31.97;;;28.70;;
39554;SDS011;25231;48.746;9.234;2022-10-19T06:00:40;30.17;;;26.47;;
39554;SDS011;25231;48.746;9.234;2022-10-19T06:03:05;32.97;;;25.13;;
39554;SDS011;25231;48.746;9.234;2022-10-19T06:05:31;27.03;;;22.17;;
39554;SDS011;25231;48.746;9.234;2022-10-19T06:07:56;27.07;;;24.23;;
39554;SDS011;25231;48.746;9.234;2022-10-19T06:10:21;27.43;;;24.73;;
39554;SDS011;25231;48.746;9.234;2022-10-19T06:12:48;26.97;;;22.80;;
39554;SDS011;25231;48.746;9.234;2022-10-19T06:15:13;25.53;;;23.00;;
39554;SDS011;25231;48.746;9.234;2022-10-19T06:17:39;28.40;;;25.57;;
39554;SDS011;25231;48.746;9.234;2022-10-19T06:20:04;28.43;;;25.97;;
39554;SDS011;25231;48.746;9.234;2022-10-19T06:22:30;26.93;;;24.50;;
39554;SDS011;25231;48.746;9.234;2022-10-19T06:24:55;26.77;;;24.40;;
39554;SDS011;25231;48.746;9.234;2022-10-19T06:27:21;27.83;;;22.17;;
39554;SDS011;25231;48.746;9.234;2022-10-19T06:29:47;24.57;;;22.27;;
39554;SDS011;25231;48.746;9.234;2022-10-19T06:32:12;24.30;;;21.97;;
39554;SDS011;25231;48.746;9.234;2022-10-19T06:34:38;21.97;;;19.87;;
39554;SDS011;25231;48.746;9.234;2022-10-19T06:37:03;28.07;;;25.40;;
39554;SDS011;25231;48.746;9.234;2022-10-19T06:39:28;30.73;;;28.00;;
39554;SDS011;25231;48.746;9.234;2022-10-19T06:41:54;30.20;;;27.80;;
39554;SDS011;25231;48.746;9.234;2022-10-19T06:44:19;34.50;;;31.70;;
39554;SDS011;25231;48.746;9.234;2022-10-19T06:46:45;42.23;;;39.07;;
39554;SDS011;25231;48.746;9.234;2022-10-19T06:49:10;32.80;;;30.30;;
39554;SDS011;25231;48.746;9.234;2022-10-19T06:51:37;23.43;;;21.07;;
39554;SDS011;25231;48.746;9.234;2022-10-19T06:54:02;21.10;;;19.30;;
39554;SDS011;25231;48.746;9.234;2022-10-19T06:56:28;20.50;;;18.73;;
39554;SDS011;25231;48.746;9.234;2022-10-19T06:58:53;20.43;;;18.70;;
39554;SDS011;25231;48.746;9.234;2022-10-19T07:01:19;21.40;;;19.60;;
39554;SDS011;25231;48.746;9.234;2022-10-19T07:03:45;21.67;;;19.50;;
39554;SDS011;25231;48.746;9.234;2022-10-19T07:06:11;27.73;;;25.40;;
39554;SDS011;25231;48.746;9.234;2022-10-19T07:08:37;35.40;;;32.37;;
39554;SDS011;25231;48.746;9.234;2022-10-19T07:11:05;30.83;;;28.03;;
39554;SDS011;25231;48.746;9.234;2022-10-19T07:13:33;34.67;;;32.03;;
39554;SDS011;25231;48.746;9.234;2022-10-19T07:16:00;32.97;;;30.40;;
39554;SDS011;25231;48.746;9.234;2022-10-19T07:18:29;24.30;;;22.23;;
39554;SDS011;25231;48.746;9.234;2022-10-19T07:20:55;23.33;;;21.30;;
39554;SDS011;25231;48.746;9.234;2022-10-19T07:23:22;19.60;;;17.80;;
39554;SDS011;25231;48.746;9.234;2022-10-19T07:25:48;17.13;;;15.53;;
39554;SDS011;25231;48.746;9.234;2022-10-19T07:28:13;18.47;;;16.50;;
39554;SDS011;25231;48.746;9.234;2022-10-19T07:30:39;19.13;;;17.17;;
39554;SDS011;25231;48.746;9.234;2022-10-19T07:33:04;25.17;;;16.97;;
39554;SDS011;25231;48.746;9.234;2022-10-19T07:35:30;17.20;;;15.60;;
39554;SDS011;25231;48.746;9.234;2022-10-19T07:37:56;17.40;;;15.60;;
39554;SDS011;25231;48.746;9.234;2022-10-19T07:40:21;18.30;;;16.50;;
39554;SDS011;25231;48.746;9.234;2022-10-19T07:42:47;17.07;;;15.47;;
39554;SDS011;25231;48.746;9.234;2022-10-19T07:45:12;18.40;;;16.80;;
39554;SDS011;25231;48.746;9.234;2022-10-19T07:47:38;16.60;;;14.73;;
39554;SDS011;25231;48.746;9.234;2022-10-19T07:50:03;16.60;;;14.43;;
39554;SDS011;25231;48.746;9.234;2022-10-19T07:52:34;18.47;;;16.53;;
39554;SDS011;25231;48.746;9.234;2022-10-19T07:55:00;23.27;;;21.27;;
39554;SDS011;25231;48.746;9.234;2022-10-19T07:57:25;23.20;;;21.27;;
39554;SDS011;25231;48.746;9.234;2022-10-19T07:59:51;20.27;;;18.27;;
39554;SDS011;25231;48.746;9.234;2022-10-19T08:02:16;19.93;;;18.13;;
39554;SDS011;25231;48.746;9.234;2022-10-19T08:04:42;15.70;;;14.10;;
39554;SDS011;25231;48.746;9.234;2022-10-19T08:07:08;16.23;;;14.63;;
39554;SDS011;25231;48.746;9.234;2022-10-19T08:09:34;16.90;;;15.20;;
39554;SDS011;25231;48.746;9.234;2022-10-19T08:12:00;20.50;;;18.70;;
39554;SDS011;25231;48.746;9.234;2022-10-19T08:14:25;22.50;;;20.50;;
39554;SDS011;25231;48.746;9.234;2022-10-19T08:16:51;20.87;;;18.97;;
39554;SDS011;25231;48.746;9.234;2022-10-19T08:19:16;21.27;;;19.43;;
39554;SDS011;25231;48.746;9.234;2022-10-19T08:21:43;45.33;;;42.37;;
39554;SDS011;25231;48.746;9.234;2022-10-19T08:24:10;44.07;;;40.80;;
39554;SDS011;25231;48.746;9.234;2022-10-19T08:26:38;52.23;;;48.63;;
39554;SDS011;25231;48.746;9.234;2022-10-19T08:29:13;40.37;;;37.27;;
39554;SDS011;25231;48.746;9.234;2022-10-19T08:31:41;41.37;;;38.37;;
39554;SDS011;25231;48.746;9.234;2022-10-19T08:34:07;63.27;;;59.23;;
39554;SDS011;25231;48.746;9.234;2022-10-19T08:36:33;22.87;;;21.10;;
39554;SDS011;25231;48.746;9.234;2022-10-19T08:39:03;19.47;;;17.53;;
39554;SDS011;25231;48.746;9.234;2022-10-19T08:44:14;17.20;;;15.47;;
39554;SDS011;25231;48.746;9.234;2022-10-19T08:49:36;16.50;;;14.90;;
39554;SDS011;25231;48.746;9.234;2022-10-19T08:52:09;18.40;;;16.07;;
39554;SDS011;25231;48.746;9.234;2022-10-19T08:54:45;21.90;;;19.80;;
39554;SDS011;25231;48.746;9.234;2022-10-19T08:59:52;45.77;;;42.63;;
39554;SDS011;25231;48.746;9.234;2022-10-19T09:02:38;57.67;;;53.97;;
39554;SDS011;25231;48.746;9.234;2022-10-19T09:05:15;46.40;;;43.50;;
39554;SDS011;25231;48.746;9.234;2022-10-19T09:07:49;23.70;;;21.87;;
39554;SDS011;25231;48.746;9.234;2022-10-19T09:10:18;20.70;;;19.10;;
39554;SDS011;25231;48.746;9.234;2022-10-19T09:12:52;15.40;;;14.20;;
39554;SDS011;25231;48.746;9.234;2022-10-19T09:15:43;19.80;;;18.30;;
39554;SDS011;25231;48.746;9.234;2022-10-19T09:18:11;23.10;;;21.43;;
39554;SDS011;25231;48.746;9.234;2022-10-19T09:20:41;48.20;;;45.10;;
39554;SDS011;25231;48.746;9.234;2022-10-19T09:23:14;53.63;;;50.27;;
39554;SDS011;25231;48.746;9.234;2022-10-19T09:25:57;57.53;;;53.93;;
39554;SDS011;25231;48.746;9.234;2022-10-19T09:33:54;47.23;;;44.33;;
39554;SDS011;25231;48.746;9.234;2022-10-19T09:36:24;74.60;;;70.23;;
39554;SDS011;25231;48.746;9.234;2022-10-19T09:38:59;86.33;;;80.83;;
39554;SDS011;25231;48.746;9.234;2022-10-19T09:41:25;55.00;;;51.70;;
39554;SDS011;25231;48.746;9.234;2022-10-19T09:43:52;39.00;;;36.43;;
39554;SDS011;25231;48.746;9.234;2022-10-19T09:49:16;29.27;;;27.37;;
39554;SDS011;25231;48.746;9.234;2022-10-19T09:51:50;18.07;;;16.67;;
39554;SDS011;25231;48.746;9.234;2022-10-19T09:57:08;23.73;;;22.33;;
39554;SDS011;25231;48.746;9.234;2022-10-19T09:59:45;18.37;;;17.10;;
39554;SDS011;25231;48.746;9.234;2022-10-19T10:02:19;33.30;;;31.40;;
39554;SDS011;25231;48.746;9.234;2022-10-19T10:04:53;30.73;;;28.93;;
39554;SDS011;25231;48.746;9.234;2022-10-19T10:07:34;26.03;;;24.37;;
39554;SDS011;25231;48.746;9.234;2022-10-19T10:10:09;32.63;;;30.63;;
39554;SDS011;25231;48.746;9.234;2022-10-19T10:12:44;15.93;;;14.93;;
39554;SDS011;25231;48.746;9.234;2022-10-19T10:15:14;15.50;;;14.30;;
39554;SDS011;25231;48.746;9.234;2022-10-19T10:17:43;30.37;;;28.57;;
39554;SDS011;25231;48.746;9.234;2022-10-19T10:20:30;32.23;;;30.33;;
39554;SDS011;25231;48.746;9.234;2022-10-19T10:22:57;23.40;;;22.00;;
39554;SDS011;25231;48.746;9.234;2022-10-19T10:25:27;28.27;;;26.47;;
39554;SDS011;25231;48.746;9.234;2022-10-19T10:27:59;16.67;;;15.33;;
39554;SDS011;25231;48.746;9.234;2022-10-19T10:30:29;22.73;;;21.33;;
39554;SDS011;25231;48.746;9.234;2022-10-19T10:32:59;23.23;;;21.70;;
39554;SDS011;25231;48.746;9.234;2022-10-19T10:35:28;20.37;;;19.10;;
39554;SDS011;25231;48.746;9.234;2022-10-19T10:38:15;14.73;;;13.80;;
39554;SDS011;25231;48.746;9.234;2022-10-19T10:43:51;14.53;;;13.63;;
39554;SDS011;25231;48.746;9.234;2022-10-19T10:46:20;14.13;;;13.30;;
39554;SDS011;25231;48.746;9.234;2022-10-19T10:48:55;8.97;;;8.27;;
39554;SDS011;25231;48.746;9.234;2022-10-19T10:54:10;14.17;;;13.37;;
39554;SDS011;25231;48.746;9.234;2022-10-19T10:56:42;11.65;;;10.95;;
39554;SDS011;25231;48.746;9.234;2022-10-19T11:01:58;38.13;;;35.97;;
39554;SDS011;25231;48.746;9.234;2022-10-19T11:04:27;20.73;;;19.43;;
39554;SDS011;25231;48.746;9.234;2022-10-19T11:07:11;12.60;;;11.30;;
39554;SDS011;25231;48.746;9.234;2022-10-19T11:09:43;14.40;;;13.50;;
39554;SDS011;25231;48.746;9.234;2022-10-19T11:12:15;67.72;;;64.10;;
39554;SDS011;25231;48.746;9.234;2022-10-19T11:17:48;117.93;;;111.63;;
39554;SDS011;25231;48.746;9.234;2022-10-19T11:20:33;21.27;;;19.90;;
39554;SDS011;25231;48.746;9.234;2022-10-19T11:23:18;17.37;;;15.87;;
39554;SDS011;25231;48.746;9.234;2022-10-19T11:25:59;14.60;;;13.70;;
39554;SDS011;25231;48.746;9.234;2022-10-19T11:28:36;13.30;;;12.50;;
39554;SDS011;25231;48.746;9.234;2022-10-19T11:31:21;12.85;;;11.98;;
39554;SDS011;25231;48.746;9.234;2022-10-19T11:34:45;24.77;;;23.17;;
39554;SDS011;25231;48.746;9.234;2022-10-19T11:39:41;10.63;;;9.83;;
39554;SDS011;25231;48.746;9.234;2022-10-19T11:45:12;9.10;;;8.40;;
39554;SDS011;25231;48.746;9.234;2022-10-19T11:48:00;12.70;;;11.83;;
39554;SDS011;25231;48.746;9.234;2022-10-19T11:55:46;9.97;;;9.27;;
39554;SDS011;25231;48.746;9.234;2022-10-19T12:04:16;8.90;;;8.30;;
39554;SDS011;25231;48.746;9.234;2022-10-19T12:12:00;12.90;;;11.88;;
39554;SDS011;25231;48.746;9.234;2022-10-19T12:14:38;66.13;;;62.42;;
39554;SDS011;25231;48.746;9.234;2022-10-19T12:17:09;25.02;;;23.45;;
39554;SDS011;25231;48.746;9.234;2022-10-19T12:19:41;33.50;;;31.45;;
39554;SDS011;25231;48.746;9.234;2022-10-19T12:22:14;32.00;;;29.97;;
39554;SDS011;25231;48.746;9.234;2022-10-19T12:24:43;46.10;;;43.33;;
39554;SDS011;25231;48.746;9.234;2022-10-19T12:27:11;27.77;;;25.97;;
39554;SDS011;25231;48.746;9.234;2022-10-19T12:29:40;40.63;;;38.27;;
39554;SDS011;25231;48.746;9.234;2022-10-19T12:32:12;26.17;;;24.70;;
39554;SDS011;25231;48.746;9.234;2022-10-19T12:37:33;32.53;;;30.70;;
39554;SDS011;25231;48.746;9.234;2022-10-19T12:45:45;29.80;;;28.03;;
39554;SDS011;25231;48.746;9.234;2022-10-19T12:48:39;27.90;;;26.05;;
39554;SDS011;25231;48.746;9.234;2022-10-19T12:51:08;31.88;;;29.77;;
39554;SDS011;25231;48.746;9.234;2022-10-19T12:53:46;15.67;;;14.57;;
39554;SDS011;25231;48.746;9.234;2022-10-19T12:56:23;33.42;;;30.73;;
39554;SDS011;25231;48.746;9.234;2022-10-19T12:58:52;16.93;;;15.83;;
39554;SDS011;25231;48.746;9.234;2022-10-19T13:01:25;11.17;;;10.33;;
39554;SDS011;25231;48.746;9.234;2022-10-19T13:04:04;12.10;;;11.20;;
39554;SDS011;25231;48.746;9.234;2022-10-19T13:06:42;13.10;;;12.23;;
39554;SDS011;25231;48.746;9.234;2022-10-19T13:09:21;10.32;;;9.52;;
39554;SDS011;25231;48.746;9.234;2022-10-19T13:17:58;24.93;;;23.30;;
39554;SDS011;25231;48.746;9.234;2022-10-19T13:20:53;10.80;;;10.10;;
39554;SDS011;25231;48.746;9.234;2022-10-19T13:43:29;10.97;;;9.93;;
39554;SDS011;25231;48.746;9.234;2022-10-19T13:46:10;9.63;;;8.93;;
39554;SDS011;25231;48.746;9.234;2022-10-19T13:54:12;17.87;;;16.87;;
39554;SDS011;25231;48.746;9.234;2022-10-19T14:11:14;21.63;;;20.33;;
39554;SDS011;25231;48.746;9.234;2022-10-19T14:13:43;23.95;;;22.67;;
39554;SDS011;25231;48.746;9.234;2022-10-19T14:16:19;26.75;;;25.20;;
39554;SDS011;25231;48.746;9.234;2022-10-19T14:18:55;16.65;;;15.65;;
39554;SDS011;25231;48.746;9.234;2022-10-19T14:21:33;11.97;;;11.27;;
39554;SDS011;25231;48.746;9.234;2022-10-19T14:24:01;10.93;;;10.10;;
39554;SDS011;25231;48.746;9.234;2022-10-19T14:26:27;20.23;;;19.13;;
39554;SDS011;25231;48.746;9.234;2022-10-19T14:28:55;23.25;;;21.95;;
39554;SDS011;25231;48.746;9.234;2022-10-19T14:31:23;21.30;;;19.97;;
39554;SDS011;25231;48.746;9.234;2022-10-19T14:33:53;20.53;;;19.43;;
39554;SDS011;25231;48.746;9.234;2022-10-19T14:36:24;15.23;;;14.03;;
39554;SDS011;25231;48.746;9.234;2022-10-19T14:38:54;12.33;;;11.43;;
39554;SDS011;25231;48.746;9.234;2022-10-19T14:41:28;9.80;;;9.00;;
39554;SDS011;25231;48.746;9.234;2022-10-19T14:43:56;15.37;;;14.47;;
39554;SDS011;25231;48.746;9.234;2022-10-19T14:46:24;24.67;;;22.77;;
39554;SDS011;25231;48.746;9.234;2022-10-19T14:48:56;21.60;;;20.17;;
39554;SDS011;25231;48.746;9.234;2022-10-19T14:51:40;12.27;;;11.57;;
39554;SDS011;25231;48.746;9.234;2022-10-19T14:54:23;10.60;;;9.90;;
39554;SDS011;25231;48.746;9.234;2022-10-19T14:57:08;9.37;;;8.73;;
39554;SDS011;25231;48.746;9.234;2022-10-19T14:59:38;9.83;;;9.13;;
39554;SDS011;25231;48.746;9.234;2022-10-19T15:02:19;10.17;;;9.37;;
39554;SDS011;25231;48.746;9.234;2022-10-19T15:04:48;23.87;;;22.43;;
39554;SDS011;25231;48.746;9.234;2022-10-19T15:07:19;13.97;;;13.07;;
39554;SDS011;25231;48.746;9.234;2022-10-19T15:09:53;15.97;;;14.83;;
39554;SDS011;25231;48.746;9.234;2022-10-19T15:12:26;13.53;;;12.63;;
39554;SDS011;25231;48.746;9.234;2022-10-19T15:14:54;21.30;;;19.90;;
39554;SDS011;25231;48.746;9.234;2022-10-19T15:17:22;23.07;;;21.57;;
39554;SDS011;25231;48.746;9.234;2022-10-19T15:19:52;25.13;;;23.63;;
39554;SDS011;25231;48.746;9.234;2022-10-19T15:22:35;19.90;;;18.50;;
39554;SDS011;25231;48.746;9.234;2022-10-19T15:27:38;15.37;;;14.27;;
39554;SDS011;25231;48.746;9.234;2022-10-19T15:32:44;9.73;;;8.83;;
39554;SDS011;25231;48.746;9.234;2022-10-19T15:38:06;8.70;;;7.90;;
39554;SDS011;25231;48.746;9.234;2022-10-19T15:40:39;8.90;;;8.20;;
39554;SDS011;25231;48.746;9.234;2022-10-19T15:48:59;21.60;;;20.07;;
39554;SDS011;25231;48.746;9.234;2022-10-19T15:51:48;13.07;;;11.60;;
39554;SDS011;25231;48.746;9.234;2022-10-19T15:54:15;11.77;;;10.67;;
39554;SDS011;25231;48.746;9.234;2022-10-19T15:56:42;14.30;;;10.77;;
39554;SDS011;25231;48.746;9.234;2022-10-19T15:59:14;12.27;;;11.27;;
39554;SDS011;25231;48.746;9.234;2022-10-19T16:01:42;12.73;;;11.83;;
39554;SDS011;25231;48.746;9.234;2022-10-19T16:04:09;10.77;;;9.87;;
39554;SDS011;25231;48.746;9.234;2022-10-19T16:06:35;10.80;;;10.00;;
39554;SDS011;25231;48.746;9.234;2022-10-19T16:09:05;10.33;;;9.43;;
39554;SDS011;25231;48.746;9.234;2022-10-19T16:11:31;10.63;;;9.73;;
39554;SDS011;25231;48.746;9.234;2022-10-19T16:14:00;11.00;;;10.03;;
39554;SDS011;25231;48.746;9.234;2022-10-19T16:16:27;12.70;;;11.70;;
39554;SDS011;25231;48.746;9.234;2022-10-19T16:18:55;17.37;;;16.23;;
39554;SDS011;25231;48.746;9.234;2022-10-19T16:21:23;15.77;;;14.33;;
39554;SDS011;25231;48.746;9.234;2022-10-19T16:23:57;17.83;;;16.43;;
39554;SDS011;25231;48.746;9.234;2022-10-19T16:26:23;23.00;;;21.37;;
39554;SDS011;25231;48.746;9.234;2022-10-19T16:28:50;24.57;;;22.97;;
39554;SDS011;25231;48.746;9.234;2022-10-19T16:31:16;26.33;;;24.60;;
39554;SDS011;25231;48.746;9.234;2022-10-19T16:33:42;23.80;;;22.30;;
39554;SDS011;25231;48.746;9.234;2022-10-19T16:36:08;19.17;;;17.67;;
39554;SDS011;25231;48.746;9.234;2022-10-19T16:38:33;19.90;;;18.53;;
39554;SDS011;25231;48.746;9.234;2022-10-19T16:41:04;19.60;;;18.20;;
39554;SDS011;25231;48.746;9.234;2022-10-19T16:43:30;19.70;;;18.00;;
39554;SDS011;25231;48.746;9.234;2022-10-19T16:45:56;20.67;;;19.07;;
39554;SDS011;25231;48.746;9.234;2022-10-19T16:48:22;21.70;;;20.07;;
39554;SDS011;25231;48.746;9.234;2022-10-19T16:53:32;22.90;;;21.37;;
39554;SDS011;25231;48.746;9.234;2022-10-19T16:56:05;22.00;;;20.40;;
39554;SDS011;25231;48.746;9.234;2022-10-19T16:58:35;21.30;;;19.80;;
39554;SDS011;25231;48.746;9.234;2022-10-19T17:01:10;22.03;;;20.63;;